sensor_id;sensor_type;location;lat;lon;timestamp;pressure;altitude;pressure_sealevel;temperature;humidity
80749;BME280;70145;53.746;9.970;2023-06-24T00:01:15;102027.44;;;16.46;52.23
80749;BME280;70145;53.746;9.970;2023-06-24T00:03:40;102030.31;;;16.45;52.45
80749;BME280;70145;53.746;9.970;2023-06-24T00:06:06;102022.41;;;16.42;52.22
80749;BME280;70145;53.746;9.970;2023-06-24T00:08:32;102028.13;;;16.38;52.43
80749;BME280;70145;53.746;9.970;2023-06-24T00:11:02;102026.53;;;16.36;52.39
80749;BME280;70145;53.746;9.970;2023-06-24T00:13:27;102022.38;;;16.32;52.33
80749;BME280;70145;53.746;9.970;2023-06-24T00:15:54;102025.38;;;16.29;52.38
80749;BME280;70145;53.746;9.970;2023-06-24T00:18:19;102024.78;;;16.25;52.49
80749;BME280;70145;53.746;9.970;2023-06-24T00:20:44;102021.63;;;16.20;52.16
80749;BME280;70145;53.746;9.970;2023-06-24T00:23:12;102029.91;;;16.19;52.42
80749;BME280;70145;53.746;9.970;2023-06-24T00:25:40;102040.19;;;16.15;52.50
80749;BME280;70145;53.746;9.970;2023-06-24T00:28:05;102045.03;;;16.12;51.84
80749;BME280;70145;53.746;9.970;2023-06-24T00:30:30;102041.72;;;16.08;52.47
80749;BME280;70145;53.746;9.970;2023-06-24T00:32:56;102054.69;;;16.05;52.30
80749;BME280;70145;53.746;9.970;2023-06-24T00:35:21;102045.97;;;16.01;52.30
80749;BME280;70145;53.746;9.970;2023-06-24T00:37:47;102056.22;;;15.98;52.00
80749;BME280;70145;53.746;9.970;2023-06-24T00:40:12;102047.50;;;15.94;52.40
80749;BME280;70145;53.746;9.970;2023-06-24T00:42:41;102045.19;;;15.90;52.26
80749;BME280;70145;53.746;9.970;2023-06-24T00:45:07;102050.00;;;15.86;52.05
80749;BME280;70145;53.746;9.970;2023-06-24T00:47:33;102054.00;;;15.82;52.05
80749;BME280;70145;53.746;9.970;2023-06-24T00:49:59;102049.81;;;15.78;52.22
80749;BME280;70145;53.746;9.970;2023-06-24T00:52:25;102061.16;;;15.72;51.77
80749;BME280;70145;53.746;9.970;2023-06-24T00:54:50;102059.72;;;15.68;52.09
80749;BME280;70145;53.746;9.970;2023-06-24T00:57:17;102058.22;;;15.64;52.28
80749;BME280;70145;53.746;9.970;2023-06-24T00:59:44;102057.66;;;15.61;52.20
80749;BME280;70145;53.746;9.970;2023-06-24T01:02:11;102048.06;;;15.57;52.28
80749;BME280;70145;53.746;9.970;2023-06-24T01:04:37;102049.41;;;15.51;51.78
80749;BME280;70145;53.746;9.970;2023-06-24T01:07:04;102046.94;;;15.48;52.01
80749;BME280;70145;53.746;9.970;2023-06-24T01:09:30;102062.78;;;15.43;51.85
80749;BME280;70145;53.746;9.970;2023-06-24T01:11:56;102062.28;;;15.38;52.05
80749;BME280;70145;53.746;9.970;2023-06-24T01:14:21;102055.41;;;15.34;51.95
80749;BME280;70145;53.746;9.970;2023-06-24T01:17:15;102060.38;;;15.29;52.08
80749;BME280;70145;53.746;9.970;2023-06-24T01:20:04;102064.56;;;15.22;51.76
80749;BME280;70145;53.746;9.970;2023-06-24T01:25:33;102058.94;;;15.14;51.97
80749;BME280;70145;53.746;9.970;2023-06-24T01:28:23;102075.97;;;15.05;52.11
80749;BME280;70145;53.746;9.970;2023-06-24T01:33:42;102075.88;;;14.96;52.08
80749;BME280;70145;53.746;9.970;2023-06-24T01:36:14;102070.78;;;14.91;52.25
80749;BME280;70145;53.746;9.970;2023-06-24T01:38:51;102073.88;;;14.87;52.24
80749;BME280;70145;53.746;9.970;2023-06-24T01:41:21;102075.13;;;14.83;52.21
80749;BME280;70145;53.746;9.970;2023-06-24T01:43:48;102074.50;;;14.79;52.20
80749;BME280;70145;53.746;9.970;2023-06-24T01:46:17;102084.75;;;14.76;52.32
80749;BME280;70145;53.746;9.970;2023-06-24T01:48:45;102076.13;;;14.71;52.28
80749;BME280;70145;53.746;9.970;2023-06-24T01:51:14;102069.09;;;14.68;52.24
80749;BME280;70145;53.746;9.970;2023-06-24T01:53:43;102070.34;;;14.64;51.98
80749;BME280;70145;53.746;9.970;2023-06-24T01:56:12;102071.56;;;14.60;52.22
80749;BME280;70145;53.746;9.970;2023-06-24T01:58:40;102071.78;;;14.57;52.05
80749;BME280;70145;53.746;9.970;2023-06-24T02:01:07;102063.91;;;14.54;52.26
80749;BME280;70145;53.746;9.970;2023-06-24T02:03:33;102067.88;;;14.50;52.40
80749;BME280;70145;53.746;9.970;2023-06-24T02:06:00;102063.81;;;14.45;52.49
80749;BME280;70145;53.746;9.970;2023-06-24T02:08:30;102074.00;;;14.41;52.54
80749;BME280;70145;53.746;9.970;2023-06-24T02:10:58;102072.53;;;14.37;52.40
80749;BME280;70145;53.746;9.970;2023-06-24T02:13:25;102068.34;;;14.33;52.64
80749;BME280;70145;53.746;9.970;2023-06-24T02:15:51;102077.59;;;14.31;52.60
80749;BME280;70145;53.746;9.970;2023-06-24T02:18:17;102079.69;;;14.27;52.57
80749;BME280;70145;53.746;9.970;2023-06-24T02:20:43;102080.03;;;14.23;52.79
80749;BME280;70145;53.746;9.970;2023-06-24T02:23:10;102085.56;;;14.21;52.61
80749;BME280;70145;53.746;9.970;2023-06-24T02:25:37;102081.38;;;14.17;52.81
80749;BME280;70145;53.746;9.970;2023-06-24T02:28:07;102081.63;;;14.14;52.79
80749;BME280;70145;53.746;9.970;2023-06-24T02:30:35;102096.38;;;14.10;52.65
80749;BME280;70145;53.746;9.970;2023-06-24T02:33:00;102097.47;;;14.07;52.54
80749;BME280;70145;53.746;9.970;2023-06-24T02:35:26;102094.13;;;14.04;52.59
80749;BME280;70145;53.746;9.970;2023-06-24T02:37:51;102097.97;;;14.01;52.98
80749;BME280;70145;53.746;9.970;2023-06-24T02:40:16;102100.91;;;13.98;52.71
80749;BME280;70145;53.746;9.970;2023-06-24T02:42:42;102103.84;;;13.95;52.88
80749;BME280;70145;53.746;9.970;2023-06-24T02:45:07;102107.66;;;13.93;52.83
80749;BME280;70145;53.746;9.970;2023-06-24T02:47:34;102109.63;;;13.91;53.03
80749;BME280;70145;53.746;9.970;2023-06-24T02:50:01;102108.13;;;13.87;52.88
80749;BME280;70145;53.746;9.970;2023-06-24T02:52:28;102108.25;;;13.85;53.00
80749;BME280;70145;53.746;9.970;2023-06-24T02:54:56;102108.38;;;13.84;53.44
80749;BME280;70145;53.746;9.970;2023-06-24T02:57:22;102107.72;;;13.80;53.19
80749;BME280;70145;53.746;9.970;2023-06-24T02:59:49;102114.13;;;13.79;53.20
80749;BME280;70145;53.746;9.970;2023-06-24T03:02:15;102104.53;;;13.75;53.23
80749;BME280;70145;53.746;9.970;2023-06-24T03:04:42;102117.19;;;13.75;53.27
80749;BME280;70145;53.746;9.970;2023-06-24T03:07:08;102112.88;;;13.72;53.69
80749;BME280;70145;53.746;9.970;2023-06-24T03:09:35;102112.13;;;13.70;53.64
80749;BME280;70145;53.746;9.970;2023-06-24T03:12:00;102114.00;;;13.70;53.46
80749;BME280;70145;53.746;9.970;2023-06-24T03:14:26;102109.75;;;13.66;53.50
80749;BME280;70145;53.746;9.970;2023-06-24T03:16:51;102108.16;;;13.63;53.64
80749;BME280;70145;53.746;9.970;2023-06-24T03:19:17;102118.13;;;13.63;53.74
80749;BME280;70145;53.746;9.970;2023-06-24T03:21:42;102116.41;;;13.62;53.71
80749;BME280;70145;53.746;9.970;2023-06-24T03:24:07;102116.63;;;13.59;53.81
80749;BME280;70145;53.746;9.970;2023-06-24T03:26:39;102124.03;;;13.57;53.92
80749;BME280;70145;53.746;9.970;2023-06-24T03:29:05;102123.16;;;13.56;53.86
80749;BME280;70145;53.746;9.970;2023-06-24T03:31:32;102122.38;;;13.54;53.95
80749;BME280;70145;53.746;9.970;2023-06-24T03:33:58;102117.09;;;13.53;54.10
80749;BME280;70145;53.746;9.970;2023-06-24T03:36:23;102119.91;;;13.51;53.79
80749;BME280;70145;53.746;9.970;2023-06-24T03:38:49;102111.06;;;13.49;53.85
80749;BME280;70145;53.746;9.970;2023-06-24T03:41:14;102113.00;;;13.47;53.90
80749;BME280;70145;53.746;9.970;2023-06-24T03:43:40;102122.22;;;13.45;53.93
80749;BME280;70145;53.746;9.970;2023-06-24T03:46:07;102118.66;;;13.44;54.06
80749;BME280;70145;53.746;9.970;2023-06-24T03:48:32;102117.03;;;13.42;53.91
80749;BME280;70145;53.746;9.970;2023-06-24T03:50:58;102125.28;;;13.40;54.06
80749;BME280;70145;53.746;9.970;2023-06-24T03:53:23;102119.22;;;13.37;54.02
80749;BME280;70145;53.746;9.970;2023-06-24T03:55:48;102113.91;;;13.35;54.29
80749;BME280;70145;53.746;9.970;2023-06-24T03:58:14;102124.75;;;13.35;54.16
80749;BME280;70145;53.746;9.970;2023-06-24T04:00:41;102132.97;;;13.34;54.30
80749;BME280;70145;53.746;9.970;2023-06-24T04:03:09;102130.25;;;13.34;54.52
80749;BME280;70145;53.746;9.970;2023-06-24T04:05:34;102138.50;;;13.32;54.25
80749;BME280;70145;53.746;9.970;2023-06-24T04:07:59;102135.06;;;13.30;54.49
80749;BME280;70145;53.746;9.970;2023-06-24T04:10:25;102140.47;;;13.30;54.50
80749;BME280;70145;53.746;9.970;2023-06-24T04:12:50;102135.16;;;13.29;54.63
80749;BME280;70145;53.746;9.970;2023-06-24T04:15:15;102139.72;;;13.28;54.73
80749;BME280;70145;53.746;9.970;2023-06-24T04:17:41;102135.28;;;13.27;55.12
80749;BME280;70145;53.746;9.970;2023-06-24T04:20:06;102136.16;;;13.28;55.18
80749;BME280;70145;53.746;9.970;2023-06-24T04:22:34;102128.88;;;13.28;55.23
80749;BME280;70145;53.746;9.970;2023-06-24T04:24:59;102120.78;;;13.28;55.44
80749;BME280;70145;53.746;9.970;2023-06-24T04:27:25;102127.06;;;13.29;55.51
80749;BME280;70145;53.746;9.970;2023-06-24T04:29:50;102127.81;;;13.31;55.42
80749;BME280;70145;53.746;9.970;2023-06-24T04:32:15;102127.81;;;13.31;55.44
80749;BME280;70145;53.746;9.970;2023-06-24T04:34:40;102125.72;;;13.34;55.67
80749;BME280;70145;53.746;9.970;2023-06-24T04:37:06;102120.19;;;13.36;55.91
80749;BME280;70145;53.746;9.970;2023-06-24T04:39:31;102132.75;;;13.37;55.77
80749;BME280;70145;53.746;9.970;2023-06-24T04:41:57;102127.22;;;13.38;55.88
80749;BME280;70145;53.746;9.970;2023-06-24T04:44:22;102137.81;;;13.41;56.00
80749;BME280;70145;53.746;9.970;2023-06-24T04:46:47;102136.88;;;13.42;56.18
80749;BME280;70145;53.746;9.970;2023-06-24T04:49:13;102139.47;;;13.44;56.45
80749;BME280;70145;53.746;9.970;2023-06-24T04:51:38;102138.34;;;13.46;56.59
80749;BME280;70145;53.746;9.970;2023-06-24T04:54:05;102148.94;;;13.49;56.57
80749;BME280;70145;53.746;9.970;2023-06-24T04:56:32;102144.16;;;13.53;56.74
80749;BME280;70145;53.746;9.970;2023-06-24T04:59:00;102141.22;;;13.56;56.92
80749;BME280;70145;53.746;9.970;2023-06-24T05:01:25;102133.88;;;13.58;57.11
80749;BME280;70145;53.746;9.970;2023-06-24T05:03:50;102128.22;;;13.61;57.09
80749;BME280;70145;53.746;9.970;2023-06-24T05:06:15;102130.69;;;13.64;57.33
80749;BME280;70145;53.746;9.970;2023-06-24T05:08:41;102136.72;;;13.67;57.33
80749;BME280;70145;53.746;9.970;2023-06-24T05:11:06;102141.78;;;13.72;57.22
80749;BME280;70145;53.746;9.970;2023-06-24T05:13:31;102144.28;;;13.75;57.61
80749;BME280;70145;53.746;9.970;2023-06-24T05:15:57;102140.34;;;13.79;57.46
80749;BME280;70145;53.746;9.970;2023-06-24T05:18:22;102125.59;;;13.83;57.61
80749;BME280;70145;53.746;9.970;2023-06-24T05:20:47;102124.38;;;13.87;57.75
80749;BME280;70145;53.746;9.970;2023-06-24T05:23:12;102119.56;;;13.90;57.78
80749;BME280;70145;53.746;9.970;2023-06-24T05:25:38;102131.06;;;13.94;57.86
80749;BME280;70145;53.746;9.970;2023-06-24T05:28:03;102134.25;;;13.99;57.91
80749;BME280;70145;53.746;9.970;2023-06-24T05:30:28;102129.34;;;14.04;58.04
80749;BME280;70145;53.746;9.970;2023-06-24T05:32:54;102130.84;;;14.08;57.94
80749;BME280;70145;53.746;9.970;2023-06-24T05:35:19;102130.59;;;14.11;58.54
80749;BME280;70145;53.746;9.970;2023-06-24T05:37:44;102130.16;;;14.17;58.43
80749;BME280;70145;53.746;9.970;2023-06-24T05:40:10;102137.81;;;14.23;58.51
80749;BME280;70145;53.746;9.970;2023-06-24T05:42:37;102143.72;;;14.28;58.40
80749;BME280;70145;53.746;9.970;2023-06-24T05:45:02;102140.66;;;14.33;58.70
80749;BME280;70145;53.746;9.970;2023-06-24T05:47:28;102155.59;;;14.38;58.51
80749;BME280;70145;53.746;9.970;2023-06-24T05:49:53;102151.53;;;14.44;58.75
80749;BME280;70145;53.746;9.970;2023-06-24T05:52:18;102151.06;;;14.50;58.80
80749;BME280;70145;53.746;9.970;2023-06-24T05:54:44;102147.97;;;14.54;58.41
80749;BME280;70145;53.746;9.970;2023-06-24T05:57:09;102157.47;;;14.60;58.44
80749;BME280;70145;53.746;9.970;2023-06-24T05:59:35;102146.00;;;14.56;59.22
80749;BME280;70145;53.746;9.970;2023-06-24T06:02:00;102149.59;;;14.68;58.80
80749;BME280;70145;53.746;9.970;2023-06-24T06:04:27;102152.44;;;14.77;58.58
80749;BME280;70145;53.746;9.970;2023-06-24T06:06:52;102150.44;;;14.79;58.68
80749;BME280;70145;53.746;9.970;2023-06-24T06:09:18;102157.09;;;14.86;58.42
80749;BME280;70145;53.746;9.970;2023-06-24T06:11:43;102162.28;;;14.89;58.52
80749;BME280;70145;53.746;9.970;2023-06-24T06:14:08;102165.41;;;14.96;58.38
80749;BME280;70145;53.746;9.970;2023-06-24T06:16:33;102162.19;;;15.02;58.40
80749;BME280;70145;53.746;9.970;2023-06-24T06:18:59;102161.56;;;15.09;58.38
80749;BME280;70145;53.746;9.970;2023-06-24T06:21:24;102156.38;;;15.17;58.19
80749;BME280;70145;53.746;9.970;2023-06-24T06:23:49;102160.31;;;15.24;58.11
80749;BME280;70145;53.746;9.970;2023-06-24T06:26:14;102153.38;;;15.31;57.88
80749;BME280;70145;53.746;9.970;2023-06-24T06:28:40;102158.69;;;15.33;58.14
80749;BME280;70145;53.746;9.970;2023-06-24T06:31:05;102162.75;;;15.38;58.24
80749;BME280;70145;53.746;9.970;2023-06-24T06:33:31;102164.00;;;15.45;58.07
80749;BME280;70145;53.746;9.970;2023-06-24T06:35:56;102162.88;;;15.48;58.25
80749;BME280;70145;53.746;9.970;2023-06-24T06:38:21;102157.91;;;15.53;57.97
80749;BME280;70145;53.746;9.970;2023-06-24T06:40:47;102161.69;;;15.61;57.72
80749;BME280;70145;53.746;9.970;2023-06-24T06:43:12;102164.78;;;15.68;57.87
80749;BME280;70145;53.746;9.970;2023-06-24T06:45:37;102156.72;;;15.77;57.59
80749;BME280;70145;53.746;9.970;2023-06-24T06:48:03;102159.81;;;15.84;57.44
80749;BME280;70145;53.746;9.970;2023-06-24T06:50:32;102152.72;;;15.92;57.46
80749;BME280;70145;53.746;9.970;2023-06-24T06:52:57;102159.34;;;15.99;57.14
80749;BME280;70145;53.746;9.970;2023-06-24T06:55:23;102170.59;;;16.06;57.01
80749;BME280;70145;53.746;9.970;2023-06-24T06:57:48;102167.22;;;16.13;56.59
80749;BME280;70145;53.746;9.970;2023-06-24T07:00:14;102165.69;;;16.20;56.72
80749;BME280;70145;53.746;9.970;2023-06-24T07:02:39;102164.28;;;16.26;56.19
80749;BME280;70145;53.746;9.970;2023-06-24T07:05:04;102161.19;;;16.30;56.02
80749;BME280;70145;53.746;9.970;2023-06-24T07:07:30;102158.78;;;16.37;55.93
80749;BME280;70145;53.746;9.970;2023-06-24T07:09:55;102162.16;;;16.29;56.44
80749;BME280;70145;53.746;9.970;2023-06-24T07:12:21;102162.38;;;16.38;56.58
80749;BME280;70145;53.746;9.970;2023-06-24T07:14:48;102165.78;;;16.51;56.15
80749;BME280;70145;53.746;9.970;2023-06-24T07:17:14;102166.81;;;16.59;56.25
80749;BME280;70145;53.746;9.970;2023-06-24T07:19:39;102164.31;;;16.67;55.84
80749;BME280;70145;53.746;9.970;2023-06-24T07:22:04;102163.72;;;16.73;55.81
80749;BME280;70145;53.746;9.970;2023-06-24T07:24:30;102167.53;;;16.82;55.30
80749;BME280;70145;53.746;9.970;2023-06-24T07:26:55;102169.53;;;16.89;55.31
80749;BME280;70145;53.746;9.970;2023-06-24T07:29:20;102169.13;;;16.94;54.79
80749;BME280;70145;53.746;9.970;2023-06-24T07:31:46;102165.88;;;17.00;54.90
80749;BME280;70145;53.746;9.970;2023-06-24T07:34:11;102167.91;;;17.07;54.16
80749;BME280;70145;53.746;9.970;2023-06-24T07:36:36;102172.81;;;17.13;54.24
80749;BME280;70145;53.746;9.970;2023-06-24T07:39:02;102176.69;;;17.20;54.10
80749;BME280;70145;53.746;9.970;2023-06-24T07:41:27;102169.72;;;17.27;53.78
80749;BME280;70145;53.746;9.970;2023-06-24T07:43:52;102177.22;;;17.35;53.26
80749;BME280;70145;53.746;9.970;2023-06-24T07:46:18;102178.66;;;17.39;53.35
80749;BME280;70145;53.746;9.970;2023-06-24T07:48:43;102182.09;;;17.41;53.51
80749;BME280;70145;53.746;9.970;2023-06-24T07:51:09;102178.09;;;17.45;53.76
80749;BME280;70145;53.746;9.970;2023-06-24T07:53:34;102180.13;;;17.52;52.84
80749;BME280;70145;53.746;9.970;2023-06-24T07:55:59;102183.28;;;17.57;52.83
80749;BME280;70145;53.746;9.970;2023-06-24T07:58:25;102177.41;;;17.62;52.51
80749;BME280;70145;53.746;9.970;2023-06-24T08:00:50;102167.78;;;17.67;53.01
80749;BME280;70145;53.746;9.970;2023-06-24T08:03:15;102167.09;;;17.75;52.86
80749;BME280;70145;53.746;9.970;2023-06-24T08:05:41;102160.06;;;17.82;52.62
80749;BME280;70145;53.746;9.970;2023-06-24T08:08:08;102154.03;;;17.88;52.78
80749;BME280;70145;53.746;9.970;2023-06-24T08:10:33;102153.22;;;17.97;52.37
80749;BME280;70145;53.746;9.970;2023-06-24T08:12:59;102163.13;;;18.07;52.07
80749;BME280;70145;53.746;9.970;2023-06-24T08:15:24;102160.38;;;18.17;52.03
80749;BME280;70145;53.746;9.970;2023-06-24T08:17:53;102155.22;;;18.23;51.53
80749;BME280;70145;53.746;9.970;2023-06-24T08:20:22;102155.78;;;18.27;51.39
80749;BME280;70145;53.746;9.970;2023-06-24T08:22:48;102156.50;;;18.29;51.15
80749;BME280;70145;53.746;9.970;2023-06-24T08:25:14;102161.47;;;18.43;50.66
80749;BME280;70145;53.746;9.970;2023-06-24T08:27:39;102157.75;;;18.54;50.38
80749;BME280;70145;53.746;9.970;2023-06-24T08:30:05;102155.72;;;18.65;50.10
80749;BME280;70145;53.746;9.970;2023-06-24T08:32:31;102153.97;;;18.74;49.77
80749;BME280;70145;53.746;9.970;2023-06-24T08:34:56;102158.69;;;18.81;49.66
80749;BME280;70145;53.746;9.970;2023-06-24T08:37:21;102153.63;;;18.86;49.43
80749;BME280;70145;53.746;9.970;2023-06-24T08:39:47;102150.88;;;18.96;49.32
80749;BME280;70145;53.746;9.970;2023-06-24T08:42:12;102146.97;;;18.98;49.35
80749;BME280;70145;53.746;9.970;2023-06-24T08:44:37;102157.72;;;19.09;49.10
80749;BME280;70145;53.746;9.970;2023-06-24T08:47:03;102164.28;;;19.16;49.28
80749;BME280;70145;53.746;9.970;2023-06-24T08:49:30;102155.19;;;19.25;49.09
80749;BME280;70145;53.746;9.970;2023-06-24T08:52:04;102155.16;;;19.35;48.67
80749;BME280;70145;53.746;9.970;2023-06-24T08:54:34;102150.78;;;19.42;49.13
80749;BME280;70145;53.746;9.970;2023-06-24T08:57:02;102149.72;;;19.52;48.79
80749;BME280;70145;53.746;9.970;2023-06-24T08:59:30;102144.63;;;19.57;48.27
80749;BME280;70145;53.746;9.970;2023-06-24T09:01:56;102151.75;;;19.68;48.16
80749;BME280;70145;53.746;9.970;2023-06-24T09:04:21;102160.81;;;19.68;48.28
80749;BME280;70145;53.746;9.970;2023-06-24T09:06:46;102157.16;;;19.77;47.87
80749;BME280;70145;53.746;9.970;2023-06-24T09:09:22;102159.66;;;19.88;47.51
80749;BME280;70145;53.746;9.970;2023-06-24T09:12:10;102145.28;;;19.86;46.80
80749;BME280;70145;53.746;9.970;2023-06-24T09:14:36;102164.44;;;20.04;47.55
80749;BME280;70145;53.746;9.970;2023-06-24T09:17:02;102163.66;;;20.11;47.64
80749;BME280;70145;53.746;9.970;2023-06-24T09:19:28;102159.81;;;20.22;47.53
80749;BME280;70145;53.746;9.970;2023-06-24T09:22:04;102156.81;;;20.33;47.08
80749;BME280;70145;53.746;9.970;2023-06-24T09:24:31;102157.75;;;20.41;46.99
80749;BME280;70145;53.746;9.970;2023-06-24T09:26:56;102152.19;;;20.51;47.18
80749;BME280;70145;53.746;9.970;2023-06-24T09:29:26;102151.22;;;20.60;46.50
80749;BME280;70145;53.746;9.970;2023-06-24T09:31:52;102156.38;;;20.63;46.25
80749;BME280;70145;53.746;9.970;2023-06-24T09:34:18;102142.59;;;20.73;46.28
80749;BME280;70145;53.746;9.970;2023-06-24T09:36:45;102146.38;;;20.80;45.87
80749;BME280;70145;53.746;9.970;2023-06-24T09:39:11;102142.34;;;20.92;45.55
80749;BME280;70145;53.746;9.970;2023-06-24T09:41:40;102135.19;;;20.99;45.48
80749;BME280;70145;53.746;9.970;2023-06-24T09:44:11;102138.81;;;21.07;45.01
80749;BME280;70145;53.746;9.970;2023-06-24T09:46:37;102129.25;;;21.11;44.96
80749;BME280;70145;53.746;9.970;2023-06-24T09:49:04;102135.09;;;21.16;45.25
80749;BME280;70145;53.746;9.970;2023-06-24T09:51:31;102130.22;;;21.28;44.85
80749;BME280;70145;53.746;9.970;2023-06-24T09:53:58;102135.19;;;21.40;44.86
80749;BME280;70145;53.746;9.970;2023-06-24T09:56:24;102137.13;;;21.48;44.78
80749;BME280;70145;53.746;9.970;2023-06-24T09:58:49;102133.38;;;21.57;44.39
80749;BME280;70145;53.746;9.970;2023-06-24T10:01:15;102126.50;;;21.69;44.36
80749;BME280;70145;53.746;9.970;2023-06-24T10:03:41;102130.31;;;21.76;44.10
80749;BME280;70145;53.746;9.970;2023-06-24T10:06:08;102129.66;;;21.82;43.79
80749;BME280;70145;53.746;9.970;2023-06-24T10:08:33;102124.03;;;21.91;43.75
80749;BME280;70145;53.746;9.970;2023-06-24T10:10:59;102122.47;;;21.97;43.92
80749;BME280;70145;53.746;9.970;2023-06-24T10:13:25;102125.22;;;22.05;43.65
80749;BME280;70145;53.746;9.970;2023-06-24T10:15:51;102122.47;;;22.13;43.58
80749;BME280;70145;53.746;9.970;2023-06-24T10:18:32;102121.63;;;22.20;43.17
80749;BME280;70145;53.746;9.970;2023-06-24T10:20:59;102120.41;;;22.23;43.64
80749;BME280;70145;53.746;9.970;2023-06-24T10:36:53;102112.81;;;22.73;42.75
80749;BME280;70145;53.746;9.970;2023-06-24T10:42:39;102107.78;;;22.77;41.16
80749;BME280;70145;53.746;9.970;2023-06-24T10:47:33;102108.25;;;22.96;42.13
80749;BME280;70145;53.746;9.970;2023-06-24T10:49:59;102092.94;;;23.02;41.54
80749;BME280;70145;53.746;9.970;2023-06-24T10:52:24;102092.38;;;23.14;41.50
80749;BME280;70145;53.746;9.970;2023-06-24T10:54:51;102090.44;;;23.23;41.58
80749;BME280;70145;53.746;9.970;2023-06-24T10:57:21;102089.25;;;23.25;40.94
80749;BME280;70145;53.746;9.970;2023-06-24T10:59:48;102085.38;;;23.34;41.40
80749;BME280;70145;53.746;9.970;2023-06-24T11:02:15;102088.59;;;23.46;41.37
80749;BME280;70145;53.746;9.970;2023-06-24T11:07:09;102077.66;;;23.60;40.99
80749;BME280;70145;53.746;9.970;2023-06-24T11:09:34;102071.31;;;23.60;40.38
80749;BME280;70145;53.746;9.970;2023-06-24T11:12:02;102075.38;;;23.72;40.59
80749;BME280;70145;53.746;9.970;2023-06-24T11:14:27;102082.06;;;23.77;40.42
80749;BME280;70145;53.746;9.970;2023-06-24T11:16:53;102077.50;;;23.84;40.24
80749;BME280;70145;53.746;9.970;2023-06-24T11:19:18;102081.91;;;23.93;40.45
80749;BME280;70145;53.746;9.970;2023-06-24T11:21:43;102071.56;;;23.95;40.04
80749;BME280;70145;53.746;9.970;2023-06-24T11:24:09;102076.81;;;24.05;40.03
80749;BME280;70145;53.746;9.970;2023-06-24T11:26:36;102068.38;;;24.06;40.07
80749;BME280;70145;53.746;9.970;2023-06-24T11:29:10;102069.72;;;24.10;38.60
80749;BME280;70145;53.746;9.970;2023-06-24T11:31:35;102076.34;;;24.16;39.25
80749;BME280;70145;53.746;9.970;2023-06-24T11:34:01;102076.03;;;24.19;38.93
80749;BME280;70145;53.746;9.970;2023-06-24T11:36:26;102066.66;;;24.28;39.27
80749;BME280;70145;53.746;9.970;2023-06-24T11:38:51;102055.72;;;24.34;39.42
80749;BME280;70145;53.746;9.970;2023-06-24T11:41:20;102057.06;;;24.38;38.87
80749;BME280;70145;53.746;9.970;2023-06-24T11:43:46;102057.66;;;24.48;38.84
80749;BME280;70145;53.746;9.970;2023-06-24T11:46:25;102063.41;;;24.53;38.43
80749;BME280;70145;53.746;9.970;2023-06-24T11:48:50;102051.47;;;24.61;38.81
80749;BME280;70145;53.746;9.970;2023-06-24T11:51:16;102057.16;;;24.59;38.90
80749;BME280;70145;53.746;9.970;2023-06-24T11:53:42;102054.50;;;24.51;38.40
80749;BME280;70145;53.746;9.970;2023-06-24T11:56:13;102061.72;;;24.67;38.58
80749;BME280;70145;53.746;9.970;2023-06-24T11:58:39;102069.06;;;24.75;39.17
80749;BME280;70145;53.746;9.970;2023-06-24T12:01:06;102060.69;;;24.83;38.78
80749;BME280;70145;53.746;9.970;2023-06-24T12:03:33;102059.53;;;24.92;38.51
80749;BME280;70145;53.746;9.970;2023-06-24T12:05:59;102051.16;;;25.00;38.84
80749;BME280;70145;53.746;9.970;2023-06-24T12:08:25;102051.69;;;25.10;38.56
80749;BME280;70145;53.746;9.970;2023-06-24T12:10:51;102050.53;;;25.19;38.28
80749;BME280;70145;53.746;9.970;2023-06-24T12:13:16;102042.34;;;25.25;38.13
80749;BME280;70145;53.746;9.970;2023-06-24T12:15:42;102041.81;;;25.30;38.42
80749;BME280;70145;53.746;9.970;2023-06-24T12:18:07;102045.88;;;25.34;38.06
80749;BME280;70145;53.746;9.970;2023-06-24T12:20:33;102052.31;;;25.41;38.15
80749;BME280;70145;53.746;9.970;2023-06-24T12:22:59;102046.41;;;25.44;37.54
80749;BME280;70145;53.746;9.970;2023-06-24T12:25:25;102050.47;;;25.48;37.81
80749;BME280;70145;53.746;9.970;2023-06-24T12:27:50;102058.56;;;25.49;37.83
80749;BME280;70145;53.746;9.970;2023-06-24T12:30:16;102045.03;;;25.54;37.98
80749;BME280;70145;53.746;9.970;2023-06-24T12:32:42;102039.06;;;25.51;37.87
80749;BME280;70145;53.746;9.970;2023-06-24T12:35:08;102049.97;;;25.59;38.19
80749;BME280;70145;53.746;9.970;2023-06-24T12:37:37;102041.94;;;25.64;38.42
80749;BME280;70145;53.746;9.970;2023-06-24T12:40:04;102037.09;;;25.66;38.36
80749;BME280;70145;53.746;9.970;2023-06-24T12:42:29;102028.66;;;25.74;38.40
80749;BME280;70145;53.746;9.970;2023-06-24T12:44:54;102029.75;;;25.79;38.12
80749;BME280;70145;53.746;9.970;2023-06-24T12:47:20;102028.19;;;25.85;37.51
80749;BME280;70145;53.746;9.970;2023-06-24T12:49:46;102035.19;;;25.87;37.59
80749;BME280;70145;53.746;9.970;2023-06-24T12:52:12;102034.91;;;25.82;37.23
80749;BME280;70145;53.746;9.970;2023-06-24T12:54:38;102042.59;;;25.87;37.40
80749;BME280;70145;53.746;9.970;2023-06-24T12:57:04;102044.44;;;25.80;37.05
80749;BME280;70145;53.746;9.970;2023-06-24T12:59:29;102034.44;;;25.79;36.83
80749;BME280;70145;53.746;9.970;2023-06-24T13:01:54;102038.03;;;25.79;36.78
80749;BME280;70145;53.746;9.970;2023-06-24T13:04:20;102030.16;;;25.76;36.88
80749;BME280;70145;53.746;9.970;2023-06-24T13:06:48;102028.94;;;25.79;36.98
80749;BME280;70145;53.746;9.970;2023-06-24T13:09:14;102022.00;;;25.83;37.22
80749;BME280;70145;53.746;9.970;2023-06-24T13:11:40;102023.75;;;25.90;37.20
80749;BME280;70145;53.746;9.970;2023-06-24T13:14:05;102016.94;;;25.86;37.10